Time;durP1;ratioP1;P1;durP2;ratioP2;P2;SDS_P1;SDS_P2;PMS_P1;PMS_P2;Temp;Humidity;BMP_temperature;BMP_pressure;BME280_temperature;BME280_humidity;BME280_pressure;Samples;Min_cycle;Max_cycle;Signal;HPM_P1;HPM_P2
2023/12/09 00:01:50;;;;;;;;;0.00;0.00;;;;;8.86;100.00;101006.91;6247455;22;48146;-87
2023/12/09 00:04:15;;;;;;;;;0.00;0.00;;;;;8.89;100.00;100999.03;6247339;22;45271;-87
2023/12/09 00:06:50;;;;;;;;;0.00;0.00;;;;;8.93;100.00;101002.44;6247350;22;45208;-86
2023/12/09 00:09:18;;;;;;;;;0.00;0.00;;;;;8.88;100.00;100993.91;6247117;22;45333;-87
2023/12/09 00:11:43;;;;;;;;;0.00;0.00;;;;;8.90;100.00;101002.50;6273601;22;45411;-86
2023/12/09 00:14:09;;;;;;;;;0.00;0.00;;;;;8.88;100.00;101002.53;6272912;22;45273;-87
2023/12/09 00:16:35;;;;;;;;;0.00;0.00;;;;;8.87;100.00;100990.41;6247065;22;45371;-87
2023/12/09 00:19:00;;;;;;;;;0.00;0.00;;;;;8.82;100.00;100986.19;6273463;22;45441;-89
2023/12/09 00:21:26;;;;;;;;;0.00;0.00;;;;;8.84;100.00;101000.00;6273249;22;46834;-89
2023/12/09 00:23:52;;;;;;;;;0.00;0.00;;;;;8.83;100.00;101000.91;6273461;22;45344;-89
2023/12/09 00:26:17;;;;;;;;;0.00;0.00;;;;;8.83;100.00;100990.50;6274174;22;46330;-89
2023/12/09 00:28:43;;;;;;;;;0.00;0.00;;;;;8.87;100.00;101002.56;6273323;22;45331;-89
2023/12/09 00:31:08;;;;;;;;;0.00;0.00;;;;;8.84;100.00;101000.88;6273052;22;46668;-89
2023/12/09 00:33:35;;;;;;;;;0.00;0.00;;;;;8.84;100.00;100997.41;6247340;22;45730;-88
2023/12/09 00:36:00;;;;;;;;;0.00;0.00;;;;;8.85;100.00;101020.75;6272830;22;45295;-87
2023/12/09 00:38:26;;;;;;;;;0.00;0.00;;;;;8.79;100.00;101010.47;6247446;22;45179;-88
2023/12/09 00:40:51;;;;;;;;;0.00;0.00;;;;;8.79;100.00;101007.03;6246439;22;52125;-89
2023/12/09 00:43:16;;;;;;;;;0.00;0.00;;;;;8.76;100.00;101009.66;6246831;22;45239;-89
2023/12/09 00:45:42;;;;;;;;;0.00;0.00;;;;;8.69;100.00;101002.00;6273680;22;45558;-89
2023/12/09 00:48:07;;;;;;;;;0.00;0.00;;;;;8.73;100.00;101000.22;6273335;22;45271;-89
2023/12/09 00:50:32;;;;;;;;;0.00;0.00;;;;;8.71;100.00;101004.53;6245912;22;60818;-89
2023/12/09 00:52:58;;;;;;;;;0.00;0.00;;;;;8.71;100.00;101021.00;6247149;22;45706;-89
2023/12/09 00:55:23;;;;;;;;;0.00;0.00;;;;;8.63;100.00;100999.47;6247377;22;45262;-89
2023/12/09 00:57:49;;;;;;;;;0.00;0.00;;;;;8.66;100.00;101012.41;6272548;22;54862;-88
2023/12/09 01:00:18;;;;;;;;;0.00;0.00;;;;;8.69;100.00;101006.31;6251088;22;46853;-86
2023/12/09 01:02:45;;;;;;;;;0.00;0.00;;;;;8.67;100.00;101002.88;6279182;22;45317;-86
2023/12/09 01:05:11;;;;;;;;;0.00;0.00;;;;;8.59;100.00;100990.03;6279795;22;45218;-87
2023/12/09 01:07:36;;;;;;;;;0.00;0.00;;;;;8.60;100.00;100990.88;6255615;22;45334;-87
2023/12/09 01:10:03;;;;;;;;;0.00;0.00;;;;;8.58;100.00;100982.28;6256079;22;46544;-86
2023/12/09 01:12:30;;;;;;;;;0.00;0.00;;;;;8.63;100.00;100990.84;6279917;22;45229;-88
2023/12/09 01:14:57;;;;;;;;;0.00;0.00;;;;;8.60;100.00;100994.38;6275100;22;45271;-88
2023/12/09 01:17:23;;;;;;;;;0.00;0.00;;;;;8.62;100.00;100999.53;6249859;22;45519;-87
2023/12/09 01:19:48;;;;;;;;;0.00;0.00;;;;;8.62;100.00;100996.94;6248239;22;46877;-88
2023/12/09 01:22:13;;;;;;;;;0.00;0.00;;;;;8.62;100.00;100994.34;6273491;22;49313;-87
2023/12/09 01:24:39;;;;;;;;;0.00;0.00;;;;;8.60;100.00;100996.09;6275413;22;45207;-88
2023/12/09 01:27:07;;;;;;;;;0.00;0.00;;;;;8.61;100.00;100997.81;6274013;22;45360;-87
2023/12/09 01:29:32;;;;;;;;;0.00;0.00;;;;;8.57;100.00;100998.75;6273856;22;45714;-87
2023/12/09 01:31:57;;;;;;;;;0.00;0.00;;;;;8.56;100.00;100989.25;6273493;22;58185;-87
2023/12/09 01:34:23;;;;;;;;;0.00;0.00;;;;;8.56;100.00;100994.44;6273255;22;51343;-88
2023/12/09 01:36:48;;;;;;;;;0.00;0.00;;;;;8.53;100.00;100987.56;6273533;22;45105;-87
2023/12/09 01:39:21;;;;;;;;;0.00;0.00;;;;;8.51;100.00;100985.00;6273410;22;46997;-87
2023/12/09 01:41:46;;;;;;;;;0.00;0.00;;;;;8.48;100.00;100981.59;6275499;22;45119;-87
2023/12/09 01:44:11;;;;;;;;;0.00;0.00;;;;;8.47;100.00;100980.72;6274113;22;45192;-87
2023/12/09 01:46:38;;;;;;;;;0.00;0.00;;;;;8.45;100.00;100984.22;6274339;22;45317;-87
2023/12/09 01:49:04;;;;;;;;;0.00;0.00;;;;;8.44;100.00;100967.81;6273532;22;45423;-87
2023/12/09 01:51:32;;;;;;;;;0.00;0.00;;;;;8.43;100.00;100973.91;6248872;22;45663;-87
2023/12/09 01:53:58;;;;;;;;;0.00;0.00;;;;;8.45;100.00;100972.13;6273250;22;61483;-87
2023/12/09 01:56:24;;;;;;;;;0.00;0.00;;;;;8.48;100.00;100971.22;6248677;22;45542;-87
2023/12/09 01:58:53;;;;;;;;;0.00;0.00;;;;;8.48;100.00;100966.88;6273925;22;46237;-87
2023/12/09 02:01:19;;;;;;;;;0.00;0.00;;;;;8.58;100.00;100971.91;6273687;22;45241;-87
2023/12/09 02:03:44;;;;;;;;;0.00;0.00;;;;;8.63;100.00;100967.50;6273533;22;45161;-87
2023/12/09 02:06:11;;;;;;;;;0.00;0.00;;;;;8.67;100.00;100962.25;6247805;22;45422;-88
2023/12/09 02:08:38;;;;;;;;;0.00;0.00;;;;;8.71;100.00;100956.09;6248568;22;47151;-88
2023/12/09 02:11:24;;;;;;;;;0.00;0.00;;;;;8.76;100.00;100948.22;6247711;22;45278;-89
2023/12/09 02:13:56;;;;;;;;;0.00;0.00;;;;;8.77;100.00;100926.59;6274025;22;45185;-88
2023/12/09 02:16:34;;;;;;;;;0.00;0.00;;;;;8.82;100.00;100926.50;6273883;22;45311;-88
2023/12/09 02:19:03;;;;;;;;;0.00;0.00;;;;;8.82;100.00;100924.78;6248187;22;47028;-88
2023/12/09 02:21:29;;;;;;;;;0.00;0.00;;;;;8.85;100.00;100927.28;6273588;22;45373;-88
2023/12/09 02:23:54;;;;;;;;;0.00;0.00;;;;;8.89;100.00;100918.56;6274175;22;45393;-88
2023/12/09 02:26:26;;;;;;;;;0.00;0.00;;;;;8.95;100.00;100920.19;6273842;22;45231;-88
2023/12/09 02:28:57;;;;;;;;;0.00;0.00;;;;;8.94;100.00;100912.44;6274815;22;46142;-88
2023/12/09 02:31:26;;;;;;;;;0.00;0.00;;;;;8.93;100.00;100898.59;6273372;22;45250;-88
2023/12/09 02:33:52;;;;;;;;;0.00;0.00;;;;;8.93;100.00;100888.19;6247305;22;45239;-87
2023/12/09 02:36:20;;;;;;;;;0.00;0.00;;;;;8.90;100.00;100883.09;6273143;22;57000;-88
2023/12/09 02:38:47;;;;;;;;;0.00;0.00;;;;;8.94;100.00;100896.88;6273192;22;47085;-87
2023/12/09 02:41:13;;;;;;;;;0.00;0.00;;;;;8.96;100.00;100882.97;6273604;22;45323;-87
2023/12/09 02:43:41;;;;;;;;;0.00;0.00;;;;;8.95;100.00;100888.19;6247935;22;45399;-89
2023/12/09 02:46:13;;;;;;;;;0.00;0.00;;;;;8.99;100.00;100882.91;6278571;22;45211;-88
2023/12/09 02:48:38;;;;;;;;;0.00;0.00;;;;;8.97;100.00;100876.00;6284857;22;46537;-88
2023/12/09 02:51:05;;;;;;;;;0.00;0.00;;;;;8.98;100.00;100877.75;6250733;22;45385;-87
2023/12/09 02:53:30;;;;;;;;;0.00;0.00;;;;;8.97;100.00;100873.41;6301097;22;45219;-88
2023/12/09 02:55:56;;;;;;;;;0.00;0.00;;;;;8.96;100.00;100879.50;6249727;22;47131;-88
2023/12/09 02:58:21;;;;;;;;;0.00;0.00;;;;;9.02;100.00;100862.06;6275501;22;45253;-88
2023/12/09 03:00:47;;;;;;;;;0.00;0.00;;;;;9.03;100.00;100858.59;6248794;22;45259;-87
2023/12/09 03:03:12;;;;;;;;;0.00;0.00;;;;;9.07;100.00;100860.22;6274704;22;45246;-87
2023/12/09 03:05:37;;;;;;;;;0.00;0.00;;;;;9.06;100.00;100857.66;6276362;22;45143;-87
2023/12/09 03:08:03;;;;;;;;;0.00;0.00;;;;;9.08;100.00;100843.78;6275141;22;46009;-88
2023/12/09 03:10:28;;;;;;;;;0.00;0.00;;;;;9.07;100.00;100831.66;6248690;22;45282;-87
2023/12/09 03:12:56;;;;;;;;;0.00;0.00;;;;;9.04;100.00;100823.06;6274968;22;45199;-88
2023/12/09 03:15:24;;;;;;;;;0.00;0.00;;;;;9.03;100.00;100827.44;6274609;22;45353;-88
2023/12/09 03:17:49;;;;;;;;;0.00;0.00;;;;;9.00;100.00;100809.31;6275261;22;46900;-87
2023/12/09 03:20:14;;;;;;;;;0.00;0.00;;;;;9.03;100.00;100805.81;6282246;22;45344;-88
2023/12/09 03:22:40;;;;;;;;;0.00;0.00;;;;;9.03;100.00;100806.66;6284237;22;45242;-87
2023/12/09 03:25:05;;;;;;;;;0.00;0.00;;;;;9.02;100.00;100806.69;6256659;22;45486;-87
2023/12/09 03:27:31;;;;;;;;;2.00;2.00;;;;;9.02;100.00;100794.53;6282409;22;47248;-88
2023/12/09 03:29:56;;;;;;;;;0.00;0.00;;;;;9.01;100.00;100779.88;6281959;22;45379;-88
2023/12/09 03:32:21;;;;;;;;;0.00;0.00;;;;;9.04;100.00;100789.31;6253355;22;45347;-87
2023/12/09 03:34:47;;;;;;;;;0.00;0.00;;;;;9.04;100.00;100799.72;6250014;22;51963;-88
2023/12/09 03:37:12;;;;;;;;;0.00;0.00;;;;;9.05;100.00;100791.03;6275837;22;46361;-88
2023/12/09 03:39:38;;;;;;;;;0.00;0.00;;;;;9.02;100.00;100785.91;6276278;22;45181;-87
2023/12/09 03:42:03;;;;;;;;;0.00;0.00;;;;;9.06;100.00;100800.53;6249982;22;45212;-88
2023/12/09 03:44:30;;;;;;;;;0.00;0.00;;;;;9.07;100.00;100784.91;6274161;22;45183;-86
2023/12/09 03:46:55;;;;;;;;;0.00;0.00;;;;;9.05;100.00;100760.72;6247503;22;48150;-86
2023/12/09 03:49:21;;;;;;;;;0.00;0.00;;;;;9.07;100.00;100756.34;6248046;22;45311;-89
2023/12/09 03:51:46;;;;;;;;;0.00;0.00;;;;;9.06;100.00;100752.06;6273836;22;45365;-87
2023/12/09 03:54:11;;;;;;;;;0.00;0.00;;;;;9.06;100.00;100744.28;6247938;22;45331;-88
2023/12/09 03:56:37;;;;;;;;;1.00;1.00;;;;;9.06;100.00;100754.66;6273837;22;46111;-88
2023/12/09 03:59:02;;;;;;;;;0.00;0.00;;;;;9.10;100.00;100750.22;6247609;22;45277;-89
2023/12/09 04:01:28;;;;;;;;;0.00;0.00;;;;;9.10;100.00;100750.22;6273553;22;45392;-88
2023/12/09 04:03:55;;;;;;;;;0.00;0.00;;;;;9.09;100.00;100741.59;6275217;22;45468;-88
2023/12/09 04:06:21;;;;;;;;;0.00;0.00;;;;;9.15;100.00;100737.16;6274320;22;47145;-88
2023/12/09 04:08:49;;;;;;;;;0.00;0.00;;;;;9.11;100.00;100724.22;6273949;22;45271;-88
2023/12/09 04:11:14;;;;;;;;;0.00;0.00;;;;;9.17;100.00;100725.00;6275687;22;45218;-88
2023/12/09 04:13:40;;;;;;;;;0.00;0.00;;;;;9.09;100.00;100704.41;6247516;22;45474;-88
2023/12/09 04:16:06;;;;;;;;;0.00;0.00;;;;;9.15;100.00;100711.19;6275498;22;45440;-88
2023/12/09 04:18:31;;;;;;;;;0.00;0.00;;;;;9.13;100.00;100708.63;6247819;22;45898;-87
2023/12/09 04:20:57;;;;;;;;;0.00;0.00;;;;;9.16;100.00;100715.50;6274482;22;45292;-88
2023/12/09 04:23:23;;;;;;;;;0.00;0.00;;;;;9.11;100.00;100703.47;6273792;22;45263;-88
2023/12/09 04:25:48;;;;;;;;;22.00;22.00;;;;;9.14;100.00;100712.94;6273584;22;47099;-88
2023/12/09 04:28:16;;;;;;;;;0.00;0.00;;;;;9.14;100.00;100712.06;6247397;22;45577;-88
2023/12/09 04:30:41;;;;;;;;;0.00;0.00;;;;;9.20;100.00;100709.34;6248421;22;45327;-88
2023/12/09 04:33:06;;;;;;;;;0.00;0.00;;;;;9.20;100.00;100710.19;6273589;22;45429;-88
2023/12/09 04:35:32;;;;;;;;;0.00;0.00;;;;;9.16;100.00;100703.38;6273192;22;46058;-87
2023/12/09 04:37:57;;;;;;;;;0.00;0.00;;;;;9.23;100.00;100704.06;6247872;22;45258;-88
2023/12/09 04:40:23;;;;;;;;;0.00;0.00;;;;;9.21;100.00;100696.31;6248389;22;45429;-88
2023/12/09 04:42:48;;;;;;;;;0.00;0.00;;;;;9.30;100.00;100700.41;6247661;22;45527;-88
2023/12/09 04:45:13;;;;;;;;;0.00;0.00;;;;;9.32;100.00;100685.66;6272853;22;54663;-87
2023/12/09 04:47:41;;;;;;;;;0.00;0.00;;;;;9.36;100.00;100679.50;6276049;22;44659;-88
2023/12/09 04:50:10;;;;;;;;;0.00;0.00;;;;;9.38;100.00;100669.94;6285407;22;45314;-89
2023/12/09 04:52:36;;;;;;;;;0.00;0.00;;;;;9.36;100.00;100663.06;6282658;22;45429;-88
2023/12/09 04:55:03;;;;;;;;;0.00;0.00;;;;;9.43;100.00;100662.00;6278962;22;46197;-88
2023/12/09 04:57:29;;;;;;;;;0.00;0.00;;;;;9.39;100.00;100673.38;6249665;22;45421;-88
2023/12/09 04:59:54;;;;;;;;;0.00;0.00;;;;;9.39;100.00;100669.03;6248829;22;45324;-88
2023/12/09 05:02:22;;;;;;;;;0.00;0.00;;;;;9.41;100.00;100659.44;6274098;22;45254;-88
2023/12/09 05:04:48;;;;;;;;;0.00;0.00;;;;;9.39;100.00;100653.44;6248159;22;48247;-88
2023/12/09 05:07:14;;;;;;;;;0.00;0.00;;;;;9.42;100.00;100649.94;6248302;22;45662;-88
2023/12/09 05:09:39;;;;;;;;;0.00;0.00;;;;;9.44;100.00;100643.78;6248371;22;45429;-88
2023/12/09 05:12:05;;;;;;;;;0.00;0.00;;;;;9.47;100.00;100633.31;6272842;22;45446;-88
2023/12/09 05:14:30;;;;;;;;;0.00;0.00;;;;;9.44;100.00;100627.34;6247761;22;46991;-88
2023/12/09 05:16:56;;;;;;;;;0.00;0.00;;;;;9.47;100.00;100628.13;6273574;22;45247;-88
2023/12/09 05:19:22;;;;;;;;;0.00;0.00;;;;;9.43;100.00;100608.28;6248242;22;45169;-87
2023/12/09 05:21:47;;;;;;;;;0.00;0.00;;;;;9.40;100.00;100618.78;6248102;22;45255;-88
2023/12/09 05:24:13;;;;;;;;;0.00;0.00;;;;;9.43;100.00;100615.25;6273807;22;47511;-88
2023/12/09 05:26:38;;;;;;;;;0.00;0.00;;;;;9.45;100.00;100616.94;6247506;22;50954;-89
2023/12/09 05:29:04;;;;;;;;;0.00;0.00;;;;;9.38;100.00;100593.72;6273333;22;45436;-89
2023/12/09 05:31:29;;;;;;;;;0.00;0.00;;;;;9.34;100.00;100579.13;6273336;22;45239;-88
2023/12/09 05:33:55;;;;;;;;;0.00;0.00;;;;;9.34;100.00;100577.34;6247301;22;49890;-88
2023/12/09 05:36:20;;;;;;;;;0.00;0.00;;;;;9.29;100.00;100555.88;6278919;22;45190;-89
2023/12/09 05:38:46;;;;;;;;;0.00;0.00;;;;;9.27;100.00;100568.06;6283113;22;45173;-88
2023/12/09 05:41:11;;;;;;;;;0.00;0.00;;;;;9.25;100.00;100556.84;6283305;22;45403;-88
2023/12/09 05:43:37;;;;;;;;;0.00;0.00;;;;;9.32;100.00;100560.13;6255274;22;49080;-88
2023/12/09 05:46:04;;;;;;;;;0.00;0.00;;;;;9.36;100.00;100557.41;6282123;22;45206;-88
2023/12/09 05:48:31;;;;;;;;;0.00;0.00;;;;;9.26;100.00;100538.59;6280626;22;45293;-89
2023/12/09 05:51:05;;;;;;;;;0.00;0.00;;;;;9.26;100.00;100550.75;6249137;22;45515;-88
2023/12/09 05:53:31;;;;;;;;;0.00;0.00;;;;;9.29;100.00;100545.47;6274113;22;46908;-89
2023/12/09 05:55:56;;;;;;;;;0.00;0.00;;;;;9.24;100.00;100534.34;6274574;22;45509;-89
2023/12/09 05:58:21;;;;;;;;;0.00;0.00;;;;;9.26;100.00;100528.22;6249138;22;45256;-89
2023/12/09 06:00:49;;;;;;;;;0.00;0.00;;;;;9.34;100.00;100533.19;6248602;22;45272;-89
2023/12/09 06:03:14;;;;;;;;;0.00;0.00;;;;;9.29;100.00;100520.34;6274058;22;45317;-88
2023/12/09 06:05:41;;;;;;;;;0.00;0.00;;;;;9.30;100.00;100513.41;6273776;22;45647;-88
2023/12/09 06:08:07;;;;;;;;;24.00;24.00;;;;;9.38;100.00;100515.78;6248524;22;45323;-89
2023/12/09 06:10:34;;;;;;;;;0.00;0.00;;;;;9.30;100.00;100498.69;6248040;22;45306;-89
2023/12/09 06:13:00;;;;;;;;;0.00;0.00;;;;;9.27;100.00;100506.56;6274529;22;45223;-90
2023/12/09 06:15:28;;;;;;;;;0.00;0.00;;;;;9.26;100.00;100509.19;6248579;22;45580;-90
2023/12/09 06:17:55;;;;;;;;;0.00;0.00;;;;;9.26;100.00;100498.81;6274581;22;45403;-90
2023/12/09 06:20:21;;;;;;;;;0.00;0.00;;;;;9.24;100.00;100480.66;6248670;22;45215;-90
2023/12/09 06:22:46;;;;;;;;;0.00;0.00;;;;;9.29;100.00;100484.00;6275396;22;45281;-90
2023/12/09 06:25:14;;;;;;;;;0.00;0.00;;;;;9.25;100.00;100469.38;6247834;22;45663;-91
2023/12/09 06:27:39;;;;;;;;;0.00;0.00;;;;;9.30;100.00;100459.72;6274989;22;45410;-90
2023/12/09 06:30:12;;;;;;;;;0.00;0.00;;;;;9.22;100.00;100458.22;6274417;22;45221;-91
2023/12/09 06:32:43;;;;;;;;;0.00;0.00;;;;;9.19;100.00;100450.50;6275973;22;45267;-92
2023/12/09 06:38:34;;;;;;;;;;;;;;;;;;;;;
2023/12/09 06:41:21;;;;;;;;;4.00;4.00;;;;;9.18;100.00;100422.88;6244648;22;45266;-92
2023/12/09 06:44:19;;;;;;;;;;;;;;;;;;;;;
2023/12/09 06:49:57;;;;;;;;;;;;;;;;;;;;;
2023/12/09 06:53:17;;;;;;;;;;;;;;;;;;;;;
2023/12/09 06:55:41;;;;;;;;;;;;;;;;;;;;;
2023/12/09 06:58:22;;;;;;;;;;;;;;;;;;;;;
2023/12/09 07:04:04;;;;;;;;;0.00;0.00;;;;;9.29;100.00;100379.25;6165239;23;45982;-90
2023/12/09 07:07:06;;;;;;;;;;;;;;;;;;;;;
2023/12/09 07:10:01;;;;;;;;;;;;;;;;;;;;;
2023/12/09 07:13:17;;;;;;;;;;;;;;;;;;;;;
2023/12/09 07:16:03;;;;;;;;;;;;;;;;;;;;;
2023/12/09 07:22:09;;;;;;;;;;;;;;;;;;;;;
2023/12/09 07:25:28;;;;;;;;;;;;;;;;;;;;;
2023/12/09 07:29:05;;;;;;;;;;;;;;;;;;;;;
2023/12/09 07:35:35;;;;;;;;;;;;;;;;;;;;;
2023/12/09 07:38:51;;;;;;;;;;;;;;;;;;;;;
2023/12/09 07:44:25;;;;;;;;;0.00;0.00;;;;;9.23;100.00;100312.75;6028561;23;46696;-87
2023/12/09 07:47:33;;;;;;;;;;;;;;;;;;;;;
2023/12/09 07:50:17;;;;;;;;;0.00;0.00;;;;;9.23;100.00;100278.13;6025571;23;45353;-88
2023/12/09 07:52:42;;;;;;;;;0.00;0.00;;;;;9.28;100.00;100300.47;6033486;23;45386;-85
2023/12/09 07:55:08;;;;;;;;;0.00;0.00;;;;;9.25;100.00;100284.16;6038353;23;48324;-85
2023/12/09 07:57:41;;;;;;;;;0.25;0.25;;;;;9.27;100.00;100275.41;6042351;23;45395;-88
2023/12/09 08:00:17;;;;;;;;;0.00;0.00;;;;;9.30;100.00;100264.94;6110427;23;45365;-88
2023/12/09 08:06:18;;;;;;;;;;;;;;;;;;;;;
2023/12/09 08:08:54;;;;;;;;;0.00;0.00;;;;;9.34;100.00;100221.50;6212241;22;72985;-87
2023/12/09 08:11:40;;;;;;;;;4.00;4.00;;;;;9.32;100.00;100194.72;6159597;22;45493;-88
2023/12/09 08:14:22;;;;;;;;;0.00;0.00;;;;;9.39;100.00;100182.41;6183800;22;45541;-89
2023/12/09 08:16:56;;;;;;;;;0.00;0.00;;;;;9.29;100.00;100176.66;6210637;22;45365;-89
2023/12/09 08:19:21;;;;;;;;;0.00;0.00;;;;;9.32;100.00;100181.75;6186318;22;45275;-90
2023/12/09 08:21:47;;;;;;;;;1.00;1.00;;;;;9.35;100.00;100181.66;6184213;22;45450;-88
2023/12/09 08:24:15;;;;;;;;;0.00;0.00;;;;;10.76;100.00;100149.78;6183771;22;59236;-90
2023/12/09 08:26:40;;;;;;;;;0.00;0.00;;;;;10.84;100.00;100146.88;6185267;22;47148;-86
2023/12/09 08:29:08;;;;;;;;;0.00;0.00;;;;;10.19;100.00;100125.03;6209205;22;45279;-85
2023/12/09 08:35:23;;;;;;;;;0.00;0.00;;;;;9.82;100.00;100083.00;6078769;23;45357;-92
2023/12/09 08:37:51;;;;;;;;;0.00;0.00;;;;;9.87;100.00;100095.84;6042272;23;48117;-87
2023/12/09 08:40:17;;;;;;;;;0.00;0.00;;;;;9.90;100.00;100095.75;6090025;23;45377;-88
2023/12/09 08:42:44;;;;;;;;;0.00;0.00;;;;;9.92;100.00;100083.56;6054874;23;45414;-87
2023/12/09 08:45:11;;;;;;;;;0.00;0.00;;;;;21.07;100.00;100083.03;6120446;23;45235;-86
2023/12/09 08:47:37;;;;;;;;;0.00;0.00;;;;;13.64;100.00;100053.22;6095557;23;46681;-85
2023/12/09 08:50:06;;;;;;;;;0.00;0.00;;;;;11.70;100.00;100027.75;6094880;23;45389;-86
2023/12/09 08:52:55;;;;;;;;;0.00;0.00;;;;;11.37;100.00;100031.81;6119987;23;45230;-91
2023/12/09 08:55:33;;;;;;;;;0.00;0.00;;;;;10.85;100.00;99987.16;6103324;23;45495;-89
2023/12/09 08:58:40;;;;;;;;;0.00;0.00;;;;;10.96;100.00;99991.91;6121228;23;47491;-89
2023/12/09 09:01:16;;;;;;;;;0.00;0.00;;;;;10.84;100.00;100003.66;6121002;23;45300;-90
2023/12/09 09:04:29;;;;;;;;;0.00;0.00;;;;;10.85;100.00;100003.63;6096395;23;45215;-91
2023/12/09 09:07:36;;;;;;;;;1.00;0.00;;;;;10.71;100.00;99969.50;6121416;23;45320;-92
2023/12/09 09:13:48;;;;;;;;;0.00;0.00;;;;;10.92;100.00;100011.16;6206384;22;45278;-90
2023/12/09 09:16:19;;;;;;;;;0.00;0.00;;;;;11.01;100.00;100008.16;6240943;22;45223;-86
2023/12/09 09:19:25;;;;;;;;;0.00;0.00;;;;;10.95;100.00;100005.81;6241359;22;45427;-87
2023/12/09 09:22:21;;;;;;;;;0.00;0.00;;;;;10.89;100.00;99977.47;6180070;23;45502;-88
2023/12/09 09:25:15;;;;;;;;;0.00;0.00;;;;;10.91;100.00;99973.88;6176845;23;45340;-89
2023/12/09 09:27:43;;;;;;;;;0.00;0.00;;;;;10.78;100.00;99980.50;6066314;23;45271;-94
2023/12/09 09:30:09;;;;;;;;;0.00;0.00;;;;;10.96;100.00;100007.53;6064772;23;48236;-87
2023/12/09 09:32:34;;;;;;;;;0.00;0.00;;;;;10.92;100.00;99991.19;6088796;23;45594;-89
2023/12/09 09:35:24;;;;;;;;;0.00;0.00;;;;;11.04;100.00;100002.84;6091512;23;47293;-90
2023/12/09 09:37:51;;;;;;;;;0.00;0.00;;;;;10.89;100.00;99962.66;6078800;23;45388;-90
2023/12/09 09:40:50;;;;;;;;;0.00;0.00;;;;;10.92;100.00;99980.78;6068301;23;45262;-96
2023/12/09 09:43:25;;;;;;;;;0.00;0.00;;;;;10.88;100.00;99962.72;6004040;23;45372;-91
2023/12/09 09:45:59;;;;;;;;;1.00;1.00;;;;;10.90;100.00;99953.97;5980993;23;45401;-90
2023/12/09 09:48:27;;;;;;;;;0.00;0.00;;;;;10.89;100.00;99928.81;6004784;23;45439;-89
2023/12/09 09:51:32;;;;;;;;;0.00;0.00;;;;;10.92;100.00;99931.31;6005300;23;45283;-91
2023/12/09 09:54:37;;;;;;;;;0.00;0.00;;;;;11.08;100.00;99952.31;6004334;23;46511;-85
2023/12/09 10:14:23;;;;;;;;;0.00;0.00;;;;;11.14;100.00;99914.72;5769406;24;45439;-86
2023/12/09 11:24:18;;;;;;;;;0.00;0.00;;;;;12.05;100.00;99712.34;5759095;24;45548;-93
2023/12/09 11:27:09;;;;;;;;;0.00;0.00;;;;;11.98;100.00;99709.22;5759923;24;45397;-92
2023/12/09 11:29:34;;;;;;;;;0.00;0.00;;;;;12.11;100.00;99720.72;5813834;24;47169;-85
2023/12/09 11:32:00;;;;;;;;;0.00;0.00;;;;;12.19;100.00;99722.91;5836487;24;45318;-85
2023/12/09 11:34:25;;;;;;;;;0.00;0.00;;;;;12.22;100.00;99707.13;5836977;24;51922;-83
2023/12/09 11:37:40;;;;;;;;;0.00;0.00;;;;;12.23;100.00;99713.16;5837738;24;67255;-93
2023/12/09 11:43:40;;;;;;;;;0.00;0.00;;;;;12.33;100.00;99691.72;5798415;24;45460;-90
2023/12/09 11:46:36;;;;;;;;;;;;;;;;;;;;;
2023/12/09 11:50:03;;;;;;;;;0.00;0.00;;;;;12.41;100.00;99673.06;5870158;24;71355;-90
2023/12/09 11:53:51;;;;;;;;;0.00;0.00;;;;;12.47;100.00;99670.09;5897990;24;46986;-96
2023/12/09 12:12:41;;;;;;;;;0.00;0.00;;;;;12.59;100.00;99645.97;6255223;22;46680;-93
2023/12/09 12:15:56;;;;;;;;;0.00;0.00;;;;;12.59;100.00;99625.06;6105609;23;45373;-92
2023/12/09 12:19:02;;;;;;;;;0.00;0.00;;;;;12.65;100.00;99629.13;6008444;23;48191;-94
2023/12/09 12:22:30;;;;;;;;;;;;;;;;;;;;;
2023/12/09 12:25:08;;;;;;;;;0.00;0.00;;;;;12.89;100.00;99618.22;5928244;24;68021;-93
2023/12/09 12:31:25;;;;;;;;;;;;;;;;;;;;;
2023/12/09 12:34:30;;;;;;;;;;;;;;;;;;;;;
2023/12/09 12:59:08;;;;;;;;;0.00;0.00;;;;;13.29;100.00;99543.59;6187178;22;1491321;-92
2023/12/09 13:08:45;;;;;;;;;0.00;0.00;;;;;13.47;100.00;99519.97;6016960;23;45346;-93
2023/12/09 13:11:10;;;;;;;;;0.00;0.00;;;;;13.57;100.00;99518.47;5987927;23;45400;-88
2023/12/09 13:14:17;;;;;;;;;1.00;0.00;;;;;13.41;100.00;99521.19;6012209;23;45272;-94
2023/12/09 13:16:57;;;;;;;;;0.00;0.00;;;;;13.62;100.00;99505.94;5934299;23;48043;-92
2023/12/09 13:19:43;;;;;;;;;0.00;0.00;;;;;13.72;100.00;99507.09;5912540;23;45459;-92
2023/12/09 13:32:45;;;;;;;;;0.00;0.00;;;;;13.84;100.00;99491.56;5923686;24;45314;-90
2023/12/09 13:38:29;;;;;;;;;0.00;0.00;;;;;13.87;100.00;99488.75;5843899;24;45235;-91
2023/12/09 13:40:57;;;;;;;;;0.00;0.00;;;;;13.88;100.00;99487.81;5863618;23;47085;-92
2023/12/09 13:44:28;;;;;;;;;0.00;0.00;;;;;14.02;100.00;99477.34;5935850;23;47720;-92
2023/12/09 13:50:27;;;;;;;;;0.00;0.00;;;;;14.24;100.00;99475.94;6154905;22;45347;-91
2023/12/09 13:52:53;;;;;;;;;0.00;0.00;;;;;14.17;100.00;99485.97;6253959;22;45340;-90
2023/12/09 13:55:23;;;;;;;;;0.00;0.00;;;;;14.25;100.00;99469.78;6246764;22;47654;-92
2023/12/09 13:57:49;;;;;;;;;0.00;0.00;;;;;14.28;100.00;99464.31;6248028;22;45575;-87
2023/12/09 14:00:16;;;;;;;;;0.00;0.00;;;;;14.28;100.00;99467.81;6247052;22;45581;-86
2023/12/09 14:02:50;;;;;;;;;0.00;0.00;;;;;14.28;100.00;99467.81;6249976;22;45519;-92
2023/12/09 14:23:04;;;;;;;;;0.00;0.00;;;;;14.70;100.00;99425.84;5136776;27;45437;-95
2023/12/09 14:29:31;;;;;;;;;0.00;0.00;;;;;14.64;100.00;99436.72;5105919;27;45602;-92
2023/12/09 14:32:43;;;;;;;;;0.00;0.00;;;;;14.44;100.00;99435.38;5059895;28;45532;-93
2023/12/09 14:35:46;;;;;;;;;0.00;0.00;;;;;14.55;100.00;99508.84;4901506;28;45652;-92
2023/12/09 14:38:12;;;;;;;;;0.00;0.00;;;;;26.79;100.00;99522.25;4907053;28;45563;-84
2023/12/09 14:40:42;;;;;;;;;0.00;0.00;;;;;35.30;100.00;99478.53;4897730;28;58124;-91
2023/12/09 14:43:49;;;;;;;;;;;;;;;;;;;;;
2023/12/09 14:46:15;;;;;;;;;0.00;0.00;;;;;-145.09;100.00;59365.97;4317432;29;2887167;-83
2023/12/09 14:48:41;;;;;;;;;0.00;0.00;;;;;-145.09;100.00;59365.97;4870239;28;379213;-85
2023/12/09 14:51:07;;;;;;;;;0.00;0.00;;;;;-145.09;100.00;59365.97;4916791;29;8830;-85
2023/12/09 14:53:33;;;;;;;;;0.00;0.00;;;;;-145.09;100.00;59365.97;4895267;29;8850;-84
2023/12/09 14:55:58;;;;;;;;;0.00;0.00;;;;;-145.09;100.00;59365.97;4926568;29;8865;-85
2023/12/09 14:58:24;;;;;;;;;0.00;0.00;;;;;-145.09;100.00;59365.97;4944212;28;8850;-84
2023/12/09 15:00:49;;;;;;;;;0.00;0.00;;;;;-145.09;100.00;59365.97;4912036;29;8850;-85
2023/12/09 15:03:16;;;;;;;;;0.00;0.00;;;;;-145.09;100.00;59365.97;4912230;29;8957;-84
2023/12/09 15:05:41;;;;;;;;;0.00;0.00;;;;;-145.09;100.00;59365.97;4928492;29;8915;-85
2023/12/09 15:08:07;;;;;;;;;0.00;0.00;;;;;-145.09;100.00;59365.97;4936352;28;8832;-84
2023/12/09 15:10:32;;;;;;;;;0.00;0.00;;;;;-145.09;100.00;59365.97;4983152;28;9578;-85
2023/12/09 15:12:59;;;;;;;;;0.00;0.00;;;;;-145.09;100.00;59365.97;5126077;27;8904;-85
2023/12/09 15:15:27;;;;;;;;;0.00;0.00;;;;;16.79;100.00;99383.84;5107200;27;45362;-87
2023/12/09 15:17:53;;;;;;;;;0.00;0.00;;;;;16.65;100.00;99405.94;5109899;27;45865;-88
2023/12/09 15:20:18;;;;;;;;;0.00;0.00;;;;;-145.09;100.00;59365.97;5063565;27;993903;-87
2023/12/09 15:22:44;;;;;;;;;0.00;0.00;;;;;16.65;100.00;127710.41;4766612;27;1443634;-83
2023/12/09 15:25:12;;;;;;;;;0.00;0.00;;;;;-145.09;100.00;59365.97;4078505;27;3799892;-86
2023/12/09 15:27:39;;;;;;;;;0.00;0.00;;;;;16.32;100.00;99411.91;4825808;27;5768204;-87
2023/12/09 15:30:06;;;;;;;;;0.00;0.00;;;;;16.50;100.00;99423.69;5128359;27;28390;-86
2023/12/09 15:32:32;;;;;;;;;0.00;0.00;;;;;16.38;100.00;99458.72;5120340;27;28386;-88
2023/12/09 15:34:57;;;;;;;;;0.00;0.00;;;;;16.38;100.00;99454.31;5131188;27;29865;-85
2023/12/09 15:37:22;;;;;;;;;0.00;0.00;;;;;16.39;100.00;99455.97;5114354;27;33081;-85
2023/12/09 15:39:48;;;;;;;;;0.00;0.00;;;;;16.29;100.00;99464.63;5096169;27;38435;-87
2023/12/09 15:42:13;;;;;;;;;0.00;0.00;;;;;16.31;100.00;99481.97;5098750;27;45477;-87
2023/12/09 15:44:41;;;;;;;;;0.00;0.00;;;;;16.21;100.00;99491.44;5081114;27;47732;-89